createdAt,value
2022-10-13T00:02:52.465Z,12.4
2022-10-13T00:07:52.469Z,12.43
2022-10-13T00:12:52.469Z,13.99
2022-10-13T00:17:52.505Z,13.66
2022-10-13T00:22:52.472Z,12.7
2022-10-13T00:27:52.478Z,13.72
2022-10-13T00:32:52.490Z,15.53
2022-10-13T00:37:52.501Z,14.89
2022-10-13T00:42:52.491Z,13.76
2022-10-13T00:47:52.477Z,11.5
2022-10-13T00:52:52.497Z,11.66
2022-10-13T00:57:52.485Z,11.46
2022-10-13T01:02:52.483Z,11.26
2022-10-13T01:07:52.500Z,10.84
2022-10-13T01:12:52.487Z,11.14
2022-10-13T01:17:52.506Z,11.42
2022-10-13T01:22:52.498Z,11.4
2022-10-13T01:27:52.520Z,11.05
2022-10-13T01:32:52.504Z,11.83
2022-10-13T01:37:52.508Z,11.56
2022-10-13T01:42:52.506Z,10.26
2022-10-13T01:47:52.498Z,10.24
2022-10-13T01:52:52.515Z,9.87
2022-10-13T01:57:52.506Z,9.36
2022-10-13T02:02:52.502Z,9.71
2022-10-13T02:07:52.540Z,10.32
2022-10-13T02:12:52.509Z,9.84
2022-10-13T02:17:52.512Z,9.71
2022-10-13T02:22:52.541Z,9.64
2022-10-13T02:27:52.519Z,9.88
2022-10-13T02:32:52.515Z,9.89
2022-10-13T02:37:52.523Z,10.75
2022-10-13T02:42:52.523Z,10.54
2022-10-13T02:47:52.533Z,11.02
2022-10-13T02:52:52.521Z,10.27
2022-10-13T02:57:52.530Z,10.44
2022-10-13T03:02:52.559Z,10
2022-10-13T03:07:52.535Z,9.78
2022-10-13T03:12:52.550Z,9.09
2022-10-13T03:17:52.539Z,9.62
2022-10-13T03:22:52.541Z,9.61
2022-10-13T03:27:52.555Z,10.04
2022-10-13T03:32:52.527Z,10.93
2022-10-13T03:37:52.537Z,12.43
2022-10-13T03:42:52.546Z,13.12
2022-10-13T03:47:52.557Z,12.74
2022-10-13T03:52:52.538Z,11.45
2022-10-13T03:57:52.558Z,11.51
2022-10-13T04:02:52.545Z,10.9
2022-10-13T04:07:52.550Z,10.46
2022-10-13T04:12:52.571Z,9.43
2022-10-13T04:17:52.555Z,11.5
2022-10-13T04:22:52.583Z,11.27
2022-10-13T04:27:52.560Z,10.09
2022-10-13T04:32:52.582Z,9.47
2022-10-13T04:37:52.570Z,9.49
2022-10-13T04:42:52.555Z,9.8
2022-10-13T04:47:52.571Z,10.06
2022-10-13T04:52:52.571Z,10.99
2022-10-13T04:57:52.590Z,10.85
2022-10-13T05:02:52.595Z,10.99
2022-10-13T05:07:52.598Z,11.49
2022-10-13T05:12:52.577Z,11.09
2022-10-13T05:17:52.569Z,12.37
2022-10-13T05:22:52.611Z,13.56
2022-10-13T05:27:52.640Z,13.45
2022-10-13T05:32:53.927Z,13.77
2022-10-13T05:37:52.619Z,14.51
2022-10-13T05:42:52.592Z,15.03
2022-10-13T05:47:52.621Z,15.31
2022-10-13T05:52:52.582Z,16.16
2022-10-13T05:57:52.582Z,15.67
2022-10-13T06:02:52.584Z,15.81
2022-10-13T06:07:52.585Z,15.11
2022-10-13T06:12:52.587Z,14.7
2022-10-13T06:17:52.621Z,16.63
2022-10-13T06:22:52.592Z,18.65
2022-10-13T06:27:52.608Z,18.99
2022-10-13T06:32:52.603Z,17.84
2022-10-13T06:37:52.586Z,17.52
2022-10-13T06:42:52.600Z,17.22
2022-10-13T06:47:52.606Z,17.8
2022-10-13T06:52:52.625Z,16.94
2022-10-13T06:57:52.601Z,15.92
2022-10-13T07:02:52.678Z,15.22
2022-10-13T07:07:52.614Z,15.01
2022-10-13T07:12:52.645Z,13.87
2022-10-13T07:17:52.609Z,14.22
2022-10-13T07:22:52.608Z,12.93
2022-10-13T07:27:52.615Z,11.67
2022-10-13T07:32:52.618Z,12.93
2022-10-13T07:37:52.629Z,20.06
2022-10-13T07:42:52.627Z,15.04
2022-10-13T07:47:52.630Z,11.55
2022-10-13T07:52:52.621Z,10.72
2022-10-13T07:57:52.619Z,12.18
2022-10-13T08:02:52.622Z,11.93
2022-10-13T08:07:54.646Z,11.22
2022-10-13T08:12:52.634Z,11.82
2022-10-13T08:17:52.634Z,11.25
2022-10-13T08:22:52.635Z,11.72
2022-10-13T08:27:55.720Z,11.57
2022-10-13T08:32:52.641Z,11.43
2022-10-13T08:37:52.675Z,11.53
2022-10-13T08:42:55.554Z,11.44
2022-10-13T08:47:52.641Z,10.07
2022-10-13T08:52:52.654Z,10.84
2022-10-13T08:57:52.644Z,9.3
2022-10-13T09:02:52.652Z,9.6
2022-10-13T09:12:52.669Z,9.13
2022-10-13T09:17:52.689Z,8.8
2022-10-13T09:22:52.646Z,8.44
2022-10-13T09:27:52.727Z,7.98
2022-10-13T09:32:52.659Z,9.32
2022-10-13T09:37:52.650Z,7.95
2022-10-13T09:42:52.677Z,8.11
2022-10-13T09:47:52.700Z,7.58
2022-10-13T09:52:52.689Z,7.05
2022-10-13T09:57:52.680Z,6.07
2022-10-13T10:02:52.671Z,6.19
2022-10-13T10:07:52.688Z,6.47
2022-10-13T10:12:52.678Z,6.3
2022-10-13T10:17:52.693Z,5.73
2022-10-13T10:22:52.708Z,5.73
2022-10-13T10:27:52.701Z,5.63
2022-10-13T10:32:52.704Z,6.05
2022-10-13T10:37:52.738Z,5.74
2022-10-13T10:42:52.706Z,7.02
2022-10-13T10:47:52.700Z,7.58
2022-10-13T10:52:52.737Z,6.35
2022-10-13T10:57:52.717Z,7.79
2022-10-13T11:02:52.793Z,6.98
2022-10-13T11:07:52.715Z,7.16
2022-10-13T11:12:52.855Z,7.13
2022-10-13T11:17:52.707Z,7.31
2022-10-13T11:22:52.719Z,6.92
2022-10-13T11:27:52.753Z,7.93
2022-10-13T11:32:52.763Z,7.15
2022-10-13T11:38:05.826Z,7.31
2022-10-13T11:42:54.338Z,7
2022-10-13T11:47:52.727Z,6.3
2022-10-13T11:52:52.736Z,5.76
2022-10-13T11:57:52.743Z,5.47
2022-10-13T12:02:52.765Z,5.6
2022-10-13T12:07:52.768Z,4.42
2022-10-13T12:12:52.752Z,3.87
2022-10-13T12:17:52.760Z,4.95
2022-10-13T12:22:52.789Z,4.61
2022-10-13T12:27:52.766Z,4.76
2022-10-13T12:32:52.753Z,5.26
2022-10-13T12:37:52.760Z,4.58
2022-10-13T12:42:52.780Z,4.47
2022-10-13T12:47:52.774Z,5.13
2022-10-13T12:52:52.802Z,4.66
2022-10-13T12:57:52.763Z,4.62
2022-10-13T13:02:52.780Z,4.43
2022-10-13T13:07:52.772Z,5.19
2022-10-13T13:12:52.781Z,4.69
2022-10-13T13:17:58.082Z,4.29
2022-10-13T13:22:52.780Z,4.86
2022-10-13T13:32:52.799Z,4.44
2022-10-13T13:37:52.807Z,5.38
2022-10-13T13:42:52.791Z,4.7
2022-10-13T13:47:54.921Z,4.87
2022-10-13T13:52:52.842Z,4.51
2022-10-13T13:57:52.812Z,4.42
2022-10-13T14:02:52.808Z,3.73
2022-10-13T14:07:52.812Z,4.06
2022-10-13T14:12:52.842Z,3.88
2022-10-13T14:17:52.823Z,3.84
2022-10-13T14:22:52.863Z,4.32
2022-10-13T14:27:52.820Z,3.65
2022-10-13T14:32:52.815Z,3.45
2022-10-13T14:37:52.823Z,3.6
2022-10-13T14:42:52.827Z,3.7
2022-10-13T14:47:52.831Z,3.82
2022-10-13T14:52:52.865Z,4.57
2022-10-13T14:57:52.851Z,4.52
2022-10-13T15:02:52.862Z,4.5
2022-10-13T15:07:52.874Z,4.74
2022-10-13T15:12:52.880Z,5.04
2022-10-13T15:17:52.862Z,7.07
2022-10-13T15:22:52.845Z,6.88
2022-10-13T15:27:52.851Z,7.28
2022-10-13T15:32:52.853Z,6.45
2022-10-13T15:37:52.860Z,6.81
2022-10-13T15:42:52.867Z,7.75
2022-10-13T15:47:52.872Z,7.83
2022-10-13T15:52:52.891Z,7.95
2022-10-13T15:57:52.870Z,8.82
2022-10-13T16:02:52.866Z,9.5
2022-10-13T16:07:52.876Z,10.56
2022-10-13T16:12:52.886Z,11.7
2022-10-13T16:17:52.900Z,14.12
2022-10-13T16:22:52.885Z,15.13
2022-10-13T16:27:52.878Z,12.8
2022-10-13T16:32:52.877Z,10.92
2022-10-13T16:37:52.903Z,10.51
2022-10-13T16:42:52.886Z,9.13
2022-10-13T16:47:52.898Z,9.16
2022-10-13T16:52:52.888Z,9.21
2022-10-13T16:57:52.941Z,9.57
2022-10-13T17:02:52.930Z,9.32
2022-10-13T17:07:52.904Z,14.96
2022-10-13T17:12:52.891Z,10.54
2022-10-13T17:17:52.932Z,9.47
2022-10-13T17:22:52.898Z,9.31
2022-10-13T17:27:52.931Z,9.78
2022-10-13T17:32:52.907Z,10.46
2022-10-13T17:37:52.916Z,10.51
2022-10-13T17:42:52.918Z,12.49
2022-10-13T17:47:52.906Z,23.7
2022-10-13T17:52:52.930Z,20.53
2022-10-13T17:57:52.923Z,13.84
2022-10-13T18:02:52.944Z,14.98
2022-10-13T18:07:52.953Z,16.4
2022-10-13T18:12:52.937Z,18.71
2022-10-13T18:17:52.932Z,24.21
2022-10-13T18:22:52.952Z,22.22
2022-10-13T18:27:52.927Z,20.34
2022-10-13T18:32:52.936Z,19.24
2022-10-13T18:37:52.913Z,19.3
2022-10-13T18:42:54.898Z,18.97
2022-10-13T18:47:52.931Z,18.07
2022-10-13T18:52:52.936Z,17.66
2022-10-13T18:57:52.960Z,19.97
2022-10-13T19:02:52.946Z,20.18
2022-10-13T19:07:52.980Z,20.41
2022-10-13T19:12:52.952Z,21.72
2022-10-13T19:17:52.945Z,21.4
2022-10-13T19:22:52.952Z,23.29
2022-10-13T19:27:52.940Z,21.75
2022-10-13T19:32:52.945Z,22.31
2022-10-13T19:37:52.962Z,23.35
2022-10-13T19:42:52.964Z,24.22
2022-10-13T19:47:52.988Z,24.71
2022-10-13T19:52:52.995Z,26.64
2022-10-13T19:57:52.958Z,24.92
2022-10-13T20:02:52.980Z,25.81
2022-10-13T20:07:52.962Z,29.63
2022-10-13T20:12:52.964Z,31.89
2022-10-13T20:17:52.985Z,33.5
2022-10-13T20:22:53.002Z,45.58
2022-10-13T20:27:53.006Z,49.35
2022-10-13T20:32:52.981Z,47.53
2022-10-13T20:37:52.980Z,47.83
2022-10-13T20:42:52.987Z,52.23
2022-10-13T20:47:52.975Z,51.44
2022-10-13T20:52:52.978Z,52.2
2022-10-13T20:57:53.033Z,45.53
2022-10-13T21:02:52.984Z,32.21
2022-10-13T21:07:52.996Z,37.37
2022-10-13T21:12:52.988Z,41.54
2022-10-13T21:17:53.030Z,45.91
2022-10-13T21:22:53.000Z,44.99
2022-10-13T21:27:53.019Z,37.54
2022-10-13T21:32:53.035Z,35.86
2022-10-13T21:37:52.991Z,38.13
2022-10-13T21:42:53.022Z,38.77
2022-10-13T21:47:53.012Z,36.72
2022-10-13T21:52:53.010Z,39.43
2022-10-13T21:57:53.006Z,39.7
2022-10-13T22:02:53.009Z,35.86
2022-10-13T22:07:53.013Z,37.65
2022-10-13T22:12:53.005Z,37.66
2022-10-13T22:17:53.014Z,34.53
2022-10-13T22:22:53.020Z,35.95
2022-10-13T22:27:53.012Z,36.51
2022-10-13T22:32:53.022Z,37.97
2022-10-13T22:37:53.013Z,37.45
2022-10-13T22:42:53.028Z,38.14
2022-10-13T22:47:53.028Z,36.56
2022-10-13T22:52:53.017Z,38.08
2022-10-13T22:57:53.062Z,37.77
2022-10-13T23:02:53.051Z,35.19
2022-10-13T23:07:53.029Z,31.67
2022-10-13T23:12:53.045Z,28.45
2022-10-13T23:17:53.043Z,26.2
2022-10-13T23:22:53.026Z,27.59
2022-10-13T23:27:53.052Z,25.56
2022-10-13T23:32:53.022Z,21.53
2022-10-13T23:37:53.039Z,23.35
2022-10-13T23:42:53.080Z,18.66
2022-10-13T23:47:53.075Z,16.2
2022-10-13T23:52:53.043Z,16.03
2022-10-13T23:57:53.065Z,19.09
